Terminal Aerodrome Forecast
Issued by NWS

Home | Current Version | Previous Version | Text Only | Print | Product List | Glossary On
Versions: 1 2 3 4 5 6 7 8 9 10 11 12 13 14 15 16 17
339
FTUS45 KABQ 261141
TAFAEG
TAF
KAEG 261141Z 2612/2712 VRB06KT P6SM BKN200
     FM262000 19008KT P6SM FEW100
     FM262200 17011KT P6SM SCT110 BKN150
     FM270500 VRB05KT P6SM FEW110 SCT200=

USA.gov is the U.S. government's official web portal to all federal, state and local government web resources and services.